<?xml version="1.0" encoding="UTF-8" standalone="no" ?><gpx xmlns="http://www.topografix.com/GPX/1/1" xmlns:gpxx="http://www.garmin.com/xmlschemas/GpxExtensions/v3" xmlns:wptx1="http://www.garmin.com/xmlschemas/WaypointExtension/v1" xmlns:gpxtpx="http://www.garmin.com/xmlschemas/TrackPointExtension/v1" creator="GuideVTT.com" version="1.1" xmlns:xsi="http://www.w3.org/2001/XMLSchema-instance" xsi:schemaLocation="http://www.topografix.com/GPX/1/1 http://www.topografix.com/GPX/1/1/gpx.xsd http://www.garmin.com/xmlschemas/GpxExtensions/v3 http://www8.garmin.com/xmlschemas/GpxExtensionsv3.xsd http://www.garmin.com/xmlschemas/WaypointExtension/v1 http://www8.garmin.com/xmlschemas/WaypointExtensionv1.xsd http://www.garmin.com/xmlschemas/TrackPointExtension/v1 http://www.garmin.com/xmlschemas/TrackPointExtensionv1.xsd">
<metadata><link href="http://www.garmin.com"><text>Garmin International</text></link><time>2013-06-22T15:13:50Z</time></metadata>
<trk><name>2008-07-04.gpx</name><extensions><gpxx:TrackExtension><gpxx:DisplayColor>Cyan</gpxx:DisplayColor></gpxx:TrackExtension></extensions><trkseg>
<trkpt lat="46.21445219" lon="7.28128728"><ele>0</ele><time>2009-03-13T22:38:56Z</time></trkpt>
<trkpt lat="38.85554999" lon="-94.79901667"><ele>0</ele><time>2009-03-13T22:38:56Z</time></trkpt>
<trkpt lat="50.98288329" lon="-1.46389998"><ele>0</ele><time>2009-03-13T22:38:56Z</time></trkpt>
<trkpt lat="25.06178336" lon="121.64026667"><ele>0</ele><time>2009-03-13T22:38:56Z</time></trkpt>
<trkpt lat="" lon=""><ele>0</ele><time>Year-Month#-Day#THour:Min:SecZ</time></trkpt>
<trkpt lat="46.22348637" lon="7.28097397"><ele>481.757813</ele><time>2009-03-13T14:46:37Z</time></trkpt>
<trkpt lat="46.22362317" lon="7.28120766"><ele>484.161133</ele><time>2009-03-13T14:46:48Z</time></trkpt>
<trkpt lat="46.22367857" lon="7.28129500"><ele>485.122437</ele><time>2009-03-13T14:46:54Z</time></trkpt>
<trkpt lat="46.22427436" lon="7.28269620"><ele>486.564453</ele><time>2009-03-13T14:47:13Z</time></trkpt>
<trkpt lat="46.22450125" lon="7.28329307"><ele>488.487183</ele><time>2009-03-13T14:47:20Z</time></trkpt>
<trkpt lat="46.22458139" lon="7.28353146"><ele>488.967773</ele><time>2009-03-13T14:47:26Z</time></trkpt>
<trkpt lat="46.22503015" lon="7.28350296"><ele>492.812988</ele><time>2009-03-13T14:47:42Z</time></trkpt>
<trkpt lat="46.22531447" lon="7.28335242"><ele>493.293579</ele><time>2009-03-13T14:47:49Z</time></trkpt>
<trkpt lat="46.22552611" lon="7.28327036"><ele>493.774292</ele><time>2009-03-13T14:47:55Z</time></trkpt>
<trkpt lat="46.22563759" lon="7.28326357"><ele>494.735596</ele><time>2009-03-13T14:47:59Z</time></trkpt>
<trkpt lat="46.22568930" lon="7.28444885"><ele>494.735596</ele><time>2009-03-13T14:48:12Z</time></trkpt>
<trkpt lat="46.22571252" lon="7.28549986"><ele>492.812988</ele><time>2009-03-13T14:48:21Z</time></trkpt>
<trkpt lat="46.22574655" lon="7.28700073"><ele>490.40979</ele><time>2009-03-13T14:48:33Z</time></trkpt>
<trkpt lat="46.22577530" lon="7.28852606"><ele>489.929077</ele><time>2009-03-13T14:48:45Z</time></trkpt>
<trkpt lat="46.22571998" lon="7.28984672"><ele>490.40979</ele><time>2009-03-13T14:48:56Z</time></trkpt>
<trkpt lat="46.22554497" lon="7.29160499"><ele>491.851685</ele><time>2009-03-13T14:49:11Z</time></trkpt>
<trkpt lat="46.22536534" lon="7.29337466"><ele>493.774292</ele><time>2009-03-13T14:49:26Z</time></trkpt>
<trkpt lat="46.22535738" lon="7.29349175"><ele>493.774292</ele><time>2009-03-13T14:49:27Z</time></trkpt>
<trkpt lat="46.22528387" lon="7.29384086"><ele>493.774292</ele><time>2009-03-13T14:49:30Z</time></trkpt>
<trkpt lat="46.22528999" lon="7.29421830"><ele>493.774292</ele><time>2009-03-13T14:49:33Z</time></trkpt>
<trkpt lat="46.22519142" lon="7.29510636"><ele>493.774292</ele><time>2009-03-13T14:49:40Z</time></trkpt>
<trkpt lat="46.22494692" lon="7.29606500"><ele>493.774292</ele><time>2009-03-13T14:49:48Z</time></trkpt>
<trkpt lat="46.22466403" lon="7.29701140"><ele>493.293579</ele><time>2009-03-13T14:49:57Z</time></trkpt>
<trkpt lat="46.22464316" lon="7.29707435"><ele>493.293579</ele><time>2009-03-13T14:49:58Z</time></trkpt>
<trkpt lat="46.22457904" lon="7.29720871"><ele>493.293579</ele><time>2009-03-13T14:50:00Z</time></trkpt>
<trkpt lat="46.22449103" lon="7.29733913"><ele>492.812988</ele><time>2009-03-13T14:50:02Z</time></trkpt>
<trkpt lat="46.22440930" lon="7.29771573"><ele>493.774292</ele><time>2009-03-13T14:50:06Z</time></trkpt>
<trkpt lat="46.22434644" lon="7.29803156"><ele>493.774292</ele><time>2009-03-13T14:50:09Z</time></trkpt>
<trkpt lat="46.22412818" lon="7.29893664"><ele>492.812988</ele><time>2009-03-13T14:50:18Z</time></trkpt>
<trkpt lat="46.22401879" lon="7.29996719"><ele>492.332397</ele><time>2009-03-13T14:50:27Z</time></trkpt>
<trkpt lat="46.22404209" lon="7.30098249"><ele>492.812988</ele><time>2009-03-13T14:50:36Z</time></trkpt>
<trkpt lat="46.22413756" lon="7.30242728"><ele>494.735596</ele><time>2009-03-13T14:50:49Z</time></trkpt>
<trkpt lat="46.22418961" lon="7.30330068"><ele>496.177734</ele><time>2009-03-13T14:50:59Z</time></trkpt>
<trkpt lat="46.22437242" lon="7.30581885"><ele>499.061523</ele><time>2009-03-13T14:51:23Z</time></trkpt>
<trkpt lat="46.22447410" lon="7.30730798"><ele>500.50354</ele><time>2009-03-13T14:51:36Z</time></trkpt>
<trkpt lat="46.22459538" lon="7.30904295"><ele>500.984131</ele><time>2009-03-13T14:51:51Z</time></trkpt>
<trkpt lat="46.22469010" lon="7.31044189"><ele>501.464844</ele><time>2009-03-13T14:52:04Z</time></trkpt>
<trkpt lat="46.22474475" lon="7.31131738"><ele>502.426147</ele><time>2009-03-13T14:52:13Z</time></trkpt>
<trkpt lat="46.22480493" lon="7.31218625"><ele>504.348877</ele><time>2009-03-13T14:52:21Z</time></trkpt>
<trkpt lat="46.22480652" lon="7.31231256"><ele>504.829468</ele><time>2009-03-13T14:52:25Z</time></trkpt>
<trkpt lat="46.22480636" lon="7.31233989"><ele>505.310181</ele><time>2009-03-13T14:52:32Z</time></trkpt>
<trkpt lat="46.22584957" lon="7.31271707"><ele>506.271484</ele><time>2009-03-13T14:53:06Z</time></trkpt>
<trkpt lat="46.22615215" lon="7.31269528"><ele>506.752075</ele><time>2009-03-13T14:53:10Z</time></trkpt>
<trkpt lat="46.22628325" lon="7.31290558"><ele>508.194092</ele><time>2009-03-13T14:53:13Z</time></trkpt>
<trkpt lat="46.22628794" lon="7.31301229"><ele>508.674683</ele><time>2009-03-13T14:53:14Z</time></trkpt>
<trkpt lat="46.22629984" lon="7.31322946"><ele>508.194092</ele><time>2009-03-13T14:53:16Z</time></trkpt>
<trkpt lat="46.22614260" lon="7.31345301"><ele>507.232788</ele><time>2009-03-13T14:53:19Z</time></trkpt>
<trkpt lat="46.22606096" lon="7.31347388"><ele>507.232788</ele><time>2009-03-13T14:53:20Z</time></trkpt>
<trkpt lat="46.22536249" lon="7.31351302"><ele>506.271484</ele><time>2009-03-13T14:53:29Z</time></trkpt>
<trkpt lat="46.22523509" lon="7.31347262"><ele>505.790894</ele><time>2009-03-13T14:53:31Z</time></trkpt>
<trkpt lat="46.22507240" lon="7.31334890"><ele>504.348877</ele><time>2009-03-13T14:53:34Z</time></trkpt>
<trkpt lat="46.22490082" lon="7.31351092"><ele>504.348877</ele><time>2009-03-13T14:53:38Z</time></trkpt>
<trkpt lat="46.22497056" lon="7.31368074"><ele>505.790894</ele><time>2009-03-13T14:53:41Z</time></trkpt>
<trkpt lat="46.22534774" lon="7.31418047"><ele>508.674683</ele><time>2009-03-13T14:53:52Z</time></trkpt>
<trkpt lat="46.22565938" lon="7.31458968"><ele>511.558716</ele><time>2009-03-13T14:54:01Z</time></trkpt>
<trkpt lat="46.22574387" lon="7.31475052"><ele>513.481445</ele><time>2009-03-13T14:54:07Z</time></trkpt>
<trkpt lat="46.22584630" lon="7.31493509"><ele>517.32666</ele><time>2009-03-13T14:54:15Z</time></trkpt>
<trkpt lat="46.22594638" lon="7.31505420"><ele>520.210571</ele><time>2009-03-13T14:54:20Z</time></trkpt>
<trkpt lat="46.22592366" lon="7.31520667"><ele>522.133179</ele><time>2009-03-13T14:54:25Z</time></trkpt>
<trkpt lat="46.22583129" lon="7.31506040"><ele>525.017212</ele><time>2009-03-13T14:54:30Z</time></trkpt>
<trkpt lat="46.22578997" lon="7.31499746"><ele>525.978394</ele><time>2009-03-13T14:54:32Z</time></trkpt>
<trkpt lat="46.22561244" lon="7.31491665"><ele>527.901001</ele><time>2009-03-13T14:54:39Z</time></trkpt>
<trkpt lat="46.22538144" lon="7.31508236"><ele>531.265747</ele><time>2009-03-13T14:54:49Z</time></trkpt>
<trkpt lat="46.22529812" lon="7.31532661"><ele>533.668945</ele><time>2009-03-13T14:54:57Z</time></trkpt>
<trkpt lat="46.22534883" lon="7.31550230"><ele>535.110962</ele><time>2009-03-13T14:55:03Z</time></trkpt>
<trkpt lat="46.22546224" lon="7.31581260"><ele>537.514282</ele><time>2009-03-13T14:55:11Z</time></trkpt>
<trkpt lat="46.22565544" lon="7.31627955"><ele>542.801514</ele><time>2009-03-13T14:55:22Z</time></trkpt>
<trkpt lat="46.22592408" lon="7.31677593"><ele>545.685547</ele><time>2009-03-13T14:55:34Z</time></trkpt>
<trkpt lat="46.22602223" lon="7.31709804"><ele>546.646851</ele><time>2009-03-13T14:55:42Z</time></trkpt>
<trkpt lat="46.22617269" lon="7.31766122"><ele>550.011475</ele><time>2009-03-13T14:55:56Z</time></trkpt>
<trkpt lat="46.22636640" lon="7.31807772"><ele>552.895264</ele><time>2009-03-13T14:56:08Z</time></trkpt>
<trkpt lat="46.22655063" lon="7.31838156"><ele>555.298584</ele><time>2009-03-13T14:56:18Z</time></trkpt>
<trkpt lat="46.22668667" lon="7.31875665"><ele>556.740723</ele><time>2009-03-13T14:56:28Z</time></trkpt>
<trkpt lat="46.22674576" lon="7.31911498"><ele>559.144043</ele><time>2009-03-13T14:56:37Z</time></trkpt>
<trkpt lat="46.22676169" lon="7.31956869"><ele>562.508545</ele><time>2009-03-13T14:56:48Z</time></trkpt>
<trkpt lat="46.22677719" lon="7.31991872"><ele>565.392578</ele><time>2009-03-13T14:56:57Z</time></trkpt>
<trkpt lat="46.22673788" lon="7.32020865"><ele>567.315186</ele><time>2009-03-13T14:57:06Z</time></trkpt>
<trkpt lat="46.22659983" lon="7.32043262"><ele>569.237793</ele><time>2009-03-13T14:57:14Z</time></trkpt>
<trkpt lat="46.22651601" lon="7.32073319"><ele>571.640869</ele><time>2009-03-13T14:57:22Z</time></trkpt>
<trkpt lat="46.22647712" lon="7.32092053"><ele>573.083252</ele><time>2009-03-13T14:57:27Z</time></trkpt>
<trkpt lat="46.22661022" lon="7.32099806"><ele>575.005859</ele><time>2009-03-13T14:57:33Z</time></trkpt>
<trkpt lat="46.22668357" lon="7.32087795"><ele>575.486328</ele><time>2009-03-13T14:57:37Z</time></trkpt>
<trkpt lat="46.22689337" lon="7.32055239"><ele>579.331543</ele><time>2009-03-13T14:57:48Z</time></trkpt>
<trkpt lat="46.22707425" lon="7.32023011"><ele>581.734863</ele><time>2009-03-13T14:57:58Z</time></trkpt>
<trkpt lat="46.22707852" lon="7.31991763"><ele>584.138184</ele><time>2009-03-13T14:58:06Z</time></trkpt>
<trkpt lat="46.22715505" lon="7.31970624"><ele>586.541504</ele><time>2009-03-13T14:58:13Z</time></trkpt>
<trkpt lat="46.22738605" lon="7.31958051"><ele>587.502686</ele><time>2009-03-13T14:58:22Z</time></trkpt>
<trkpt lat="46.22760214" lon="7.31936937"><ele>590.867432</ele><time>2009-03-13T14:58:32Z</time></trkpt>
<trkpt lat="46.22771488" lon="7.31937935"><ele>591.348145</ele><time>2009-03-13T14:58:37Z</time></trkpt>
<trkpt lat="46.22800237" lon="7.31964078"><ele>594.712646</ele><time>2009-03-13T14:58:52Z</time></trkpt>
<trkpt lat="46.22795099" lon="7.31972099"><ele>597.59668</ele><time>2009-03-13T14:58:56Z</time></trkpt>
<trkpt lat="46.22780473" lon="7.31969987"><ele>600</ele><time>2009-03-13T14:59:03Z</time></trkpt>
<trkpt lat="46.22771169" lon="7.31977212"><ele>602.403076</ele><time>2009-03-13T14:59:07Z</time></trkpt>
<trkpt lat="46.22757406" lon="7.31985074"><ele>603.845215</ele><time>2009-03-13T14:59:14Z</time></trkpt>
<trkpt lat="46.22747054" lon="7.31999919"><ele>606.729248</ele><time>2009-03-13T14:59:22Z</time></trkpt>
<trkpt lat="46.22749552" lon="7.32031443"><ele>611.055176</ele><time>2009-03-13T14:59:33Z</time></trkpt>
<trkpt lat="46.22756517" lon="7.32061073"><ele>613.938965</ele><time>2009-03-13T14:59:44Z</time></trkpt>
<trkpt lat="46.22767464" lon="7.32092455"><ele>618.264893</ele><time>2009-03-13T14:59:56Z</time></trkpt>
<trkpt lat="46.22774136" lon="7.32119830"><ele>621.629639</ele><time>2009-03-13T15:00:06Z</time></trkpt>
<trkpt lat="46.22765637" lon="7.32136217"><ele>622.110352</ele><time>2009-03-13T15:00:13Z</time></trkpt>
<trkpt lat="46.22763416" lon="7.32161237"><ele>622.591064</ele><time>2009-03-13T15:00:20Z</time></trkpt>
<trkpt lat="46.22763198" lon="7.32204831"><ele>621.629639</ele><time>2009-03-13T15:00:27Z</time></trkpt>
<trkpt lat="46.22759451" lon="7.32252197"><ele>622.591064</ele><time>2009-03-13T15:00:34Z</time></trkpt>
<trkpt lat="46.22766752" lon="7.32282867"><ele>624.513672</ele><time>2009-03-13T15:00:39Z</time></trkpt>
<trkpt lat="46.22776584" lon="7.32311030"><ele>625.955566</ele><time>2009-03-13T15:00:44Z</time></trkpt>
<trkpt lat="46.22778688" lon="7.32336503"><ele>627.397705</ele><time>2009-03-13T15:00:48Z</time></trkpt>
<trkpt lat="46.22777883" lon="7.32420724"><ele>629.320068</ele><time>2009-03-13T15:01:01Z</time></trkpt>
<trkpt lat="46.22782242" lon="7.32471476"><ele>630.762207</ele><time>2009-03-13T15:01:10Z</time></trkpt>
<trkpt lat="46.22789416" lon="7.32500670"><ele>633.645996</ele><time>2009-03-13T15:01:17Z</time></trkpt>
<trkpt lat="46.22799994" lon="7.32532245"><ele>635.088135</ele><time>2009-03-13T15:01:26Z</time></trkpt>
<trkpt lat="46.22808611" lon="7.32562470"><ele>636.530273</ele><time>2009-03-13T15:01:34Z</time></trkpt>
<trkpt lat="46.22807882" lon="7.32603709"><ele>639.414063</ele><time>2009-03-13T15:01:50Z</time></trkpt>
<trkpt lat="46.22816029" lon="7.32634613"><ele>642.298096</ele><time>2009-03-13T15:02:01Z</time></trkpt>
<trkpt lat="46.22819826" lon="7.32659038"><ele>646.143311</ele><time>2009-03-13T15:02:10Z</time></trkpt>
<trkpt lat="46.22818066" lon="7.32670245"><ele>648.546387</ele><time>2009-03-13T15:02:18Z</time></trkpt>
<trkpt lat="46.22823724" lon="7.32680043"><ele>649.988525</ele><time>2009-03-13T15:02:24Z</time></trkpt>
<trkpt lat="46.22833396" lon="7.32702549"><ele>654.314697</ele><time>2009-03-13T15:02:34Z</time></trkpt>
<trkpt lat="46.22838702" lon="7.32723998"><ele>654.795166</ele><time>2009-03-13T15:02:43Z</time></trkpt>
<trkpt lat="46.22838266" lon="7.32744265"><ele>657.198486</ele><time>2009-03-13T15:02:50Z</time></trkpt>
<trkpt lat="46.22844846" lon="7.32760987"><ele>659.121094</ele><time>2009-03-13T15:02:57Z</time></trkpt>
<trkpt lat="46.22851015" lon="7.32780743"><ele>660.082275</ele><time>2009-03-13T15:03:06Z</time></trkpt>
<trkpt lat="46.22857637" lon="7.32803517"><ele>661.043701</ele><time>2009-03-13T15:03:16Z</time></trkpt>
<trkpt lat="46.22864912" lon="7.32827934"><ele>663.447021</ele><time>2009-03-13T15:03:27Z</time></trkpt>
<trkpt lat="46.22869531" lon="7.32858284"><ele>666.811523</ele><time>2009-03-13T15:03:40Z</time></trkpt>
<trkpt lat="46.22872288" lon="7.32881946"><ele>669.215088</ele><time>2009-03-13T15:03:51Z</time></trkpt>
<trkpt lat="46.22875180" lon="7.32906774"><ele>674.021484</ele><time>2009-03-13T15:04:02Z</time></trkpt>
<trkpt lat="46.22885968" lon="7.32951952"><ele>681.231445</ele><time>2009-03-13T15:04:22Z</time></trkpt>
<trkpt lat="46.22890770" lon="7.32983292"><ele>686.518799</ele><time>2009-03-13T15:04:36Z</time></trkpt>
<trkpt lat="46.22895791" lon="7.32999905"><ele>688.922119</ele><time>2009-03-13T15:04:45Z</time></trkpt>
<trkpt lat="46.22909110" lon="7.32996745"><ele>686.999268</ele><time>2009-03-13T15:04:55Z</time></trkpt>
<trkpt lat="46.22917752" lon="7.32991900"><ele>688.441406</ele><time>2009-03-13T15:05:01Z</time></trkpt>
<trkpt lat="46.22924675" lon="7.32972421"><ele>689.883301</ele><time>2009-03-13T15:05:11Z</time></trkpt>
<trkpt lat="46.22927265" lon="7.32947275"><ele>687.47998</ele><time>2009-03-13T15:05:28Z</time></trkpt>
<trkpt lat="46.22930869" lon="7.32910395"><ele>685.557373</ele><time>2009-03-13T15:05:36Z</time></trkpt>
<trkpt lat="46.22927944" lon="7.32854798"><ele>685.076904</ele><time>2009-03-13T15:05:46Z</time></trkpt>
<trkpt lat="46.22927684" lon="7.32835955"><ele>685.557373</ele><time>2009-03-13T15:05:49Z</time></trkpt>
<trkpt lat="46.22937625" lon="7.32810348"><ele>686.999268</ele><time>2009-03-13T15:05:54Z</time></trkpt>
<trkpt lat="46.22944197" lon="7.32803525"><ele>686.518799</ele><time>2009-03-13T15:05:56Z</time></trkpt>
<trkpt lat="46.22950424" lon="7.32770065"><ele>687.960693</ele><time>2009-03-13T15:06:02Z</time></trkpt>
<trkpt lat="46.22949553" lon="7.32753117"><ele>687.47998</ele><time>2009-03-13T15:06:05Z</time></trkpt>
<trkpt lat="46.22958639" lon="7.32727937"><ele>686.518799</ele><time>2009-03-13T15:06:10Z</time></trkpt>
<trkpt lat="46.22975931" lon="7.32729941"><ele>687.960693</ele><time>2009-03-13T15:06:14Z</time></trkpt>
<trkpt lat="46.22984396" lon="7.32734601"><ele>688.922119</ele><time>2009-03-13T15:06:16Z</time></trkpt>
<trkpt lat="46.23003272" lon="7.32729362"><ele>690.844482</ele><time>2009-03-13T15:06:21Z</time></trkpt>
<trkpt lat="46.23020514" lon="7.32730058"><ele>691.325195</ele><time>2009-03-13T15:06:26Z</time></trkpt>
<trkpt lat="46.23040739" lon="7.32752915"><ele>693.247803</ele><time>2009-03-13T15:06:32Z</time></trkpt>
<trkpt lat="46.23058107" lon="7.32784901"><ele>692.286621</ele><time>2009-03-13T15:06:39Z</time></trkpt>
<trkpt lat="46.23064511" lon="7.32803157"><ele>691.805908</ele><time>2009-03-13T15:06:42Z</time></trkpt>
<trkpt lat="46.23080034" lon="7.32874478"><ele>692.286621</ele><time>2009-03-13T15:06:51Z</time></trkpt>
<trkpt lat="46.23083387" lon="7.32892583"><ele>690.364014</ele><time>2009-03-13T15:06:54Z</time></trkpt>
<trkpt lat="46.23098457" lon="7.32941316"><ele>688.922119</ele><time>2009-03-13T15:07:00Z</time></trkpt>
<trkpt lat="46.23123569" lon="7.33017775"><ele>682.67334</ele><time>2009-03-13T15:07:09Z</time></trkpt>
<trkpt lat="46.23135363" lon="7.33044698"><ele>679.308594</ele><time>2009-03-13T15:07:16Z</time></trkpt>
<trkpt lat="46.23150165" lon="7.33085509"><ele>675.944092</ele><time>2009-03-13T15:07:22Z</time></trkpt>
<trkpt lat="46.23152378" lon="7.33100496"><ele>673.060303</ele><time>2009-03-13T15:07:25Z</time></trkpt>
<trkpt lat="46.23155404" lon="7.33118769"><ele>670.656982</ele><time>2009-03-13T15:07:28Z</time></trkpt>
<trkpt lat="46.23164046" lon="7.33138793"><ele>668.734375</ele><time>2009-03-13T15:07:32Z</time></trkpt>
<trkpt lat="46.23192661" lon="7.33141501"><ele>665.369629</ele><time>2009-03-13T15:07:38Z</time></trkpt>
<trkpt lat="46.23203550" lon="7.33162874"><ele>663.447021</ele><time>2009-03-13T15:07:42Z</time></trkpt>
<trkpt lat="46.23206701" lon="7.33168767"><ele>662.966309</ele><time>2009-03-13T15:07:43Z</time></trkpt>
<trkpt lat="46.23235040" lon="7.33206091"><ele>661.524414</ele><time>2009-03-13T15:07:51Z</time></trkpt>
<trkpt lat="46.23250748" lon="7.33218681"><ele>661.043701</ele><time>2009-03-13T15:07:55Z</time></trkpt>
<trkpt lat="46.23275064" lon="7.33261663"><ele>658.640381</ele><time>2009-03-13T15:08:02Z</time></trkpt>
<trkpt lat="46.23304501" lon="7.33322566"><ele>656.237061</ele><time>2009-03-13T15:08:11Z</time></trkpt>
<trkpt lat="46.23328624" lon="7.33369522"><ele>658.159912</ele><time>2009-03-13T15:08:17Z</time></trkpt>
<trkpt lat="46.23358648" lon="7.33437474"><ele>658.159912</ele><time>2009-03-13T15:08:25Z</time></trkpt>
<trkpt lat="46.23393777" lon="7.33508276"><ele>655.275879</ele><time>2009-03-13T15:08:34Z</time></trkpt>
<trkpt lat="46.23430808" lon="7.33559984"><ele>651.43042</ele><time>2009-03-13T15:08:40Z</time></trkpt>
<trkpt lat="46.23455510" lon="7.33598071"><ele>651.43042</ele><time>2009-03-13T15:08:44Z</time></trkpt>
<trkpt lat="46.23464478" lon="7.33632806"><ele>652.391846</ele><time>2009-03-13T15:08:48Z</time></trkpt>
<trkpt lat="46.23463917" lon="7.33652168"><ele>652.872559</ele><time>2009-03-13T15:08:50Z</time></trkpt>
<trkpt lat="46.23473665" lon="7.33735451"><ele>655.275879</ele><time>2009-03-13T15:08:59Z</time></trkpt>
<trkpt lat="46.23480295" lon="7.33798172"><ele>657.198486</ele><time>2009-03-13T15:09:06Z</time></trkpt>
<trkpt lat="46.23490001" lon="7.33852655"><ele>658.159912</ele><time>2009-03-13T15:09:13Z</time></trkpt>
<trkpt lat="46.23494536" lon="7.33866510"><ele>658.159912</ele><time>2009-03-13T15:09:15Z</time></trkpt>
<trkpt lat="46.23494829" lon="7.33906567"><ele>658.640381</ele><time>2009-03-13T15:09:21Z</time></trkpt>
<trkpt lat="46.23494904" lon="7.33923675"><ele>658.640381</ele><time>2009-03-13T15:09:26Z</time></trkpt>
<trkpt lat="46.23504946" lon="7.33914731"><ele>658.640381</ele><time>2009-03-13T15:09:31Z</time></trkpt>
<trkpt lat="46.23509506" lon="7.33849386"><ele>661.043701</ele><time>2009-03-13T15:09:41Z</time></trkpt>
<trkpt lat="46.23515633" lon="7.33786874"><ele>664.888916</ele><time>2009-03-13T15:09:50Z</time></trkpt>
<trkpt lat="46.23532866" lon="7.33760756"><ele>666.811523</ele><time>2009-03-13T15:09:56Z</time></trkpt>
<trkpt lat="46.23543469" lon="7.33766807"><ele>668.734375</ele><time>2009-03-13T15:10:00Z</time></trkpt>
<trkpt lat="46.23546462" lon="7.33780948"><ele>670.656982</ele><time>2009-03-13T15:10:03Z</time></trkpt>
<trkpt lat="46.23556545" lon="7.33817602"><ele>673.060303</ele><time>2009-03-13T15:10:12Z</time></trkpt>
<trkpt lat="46.23583426" lon="7.33844499"><ele>676.424805</ele><time>2009-03-13T15:10:22Z</time></trkpt>
<trkpt lat="46.23625528" lon="7.33871841"><ele>679.308594</ele><time>2009-03-13T15:10:36Z</time></trkpt>
<trkpt lat="46.23669617" lon="7.33876535"><ele>683.153809</ele><time>2009-03-13T15:10:48Z</time></trkpt>
<trkpt lat="46.23706648" lon="7.33881773"><ele>687.960693</ele><time>2009-03-13T15:10:57Z</time></trkpt>
<trkpt lat="46.23757627" lon="7.33894338"><ele>692.767334</ele><time>2009-03-13T15:11:10Z</time></trkpt>
<trkpt lat="46.23797835" lon="7.33893433"><ele>696.131836</ele><time>2009-03-13T15:11:21Z</time></trkpt>
<trkpt lat="46.23807851" lon="7.33871690"><ele>697.57373</ele><time>2009-03-13T15:11:26Z</time></trkpt>
<trkpt lat="46.23809234" lon="7.33821466"><ele>699.977051</ele><time>2009-03-13T15:11:35Z</time></trkpt>
<trkpt lat="46.23810500" lon="7.33793160"><ele>702.380371</ele><time>2009-03-13T15:11:42Z</time></trkpt>
<trkpt lat="46.23812822" lon="7.33749264"><ele>706.225586</ele><time>2009-03-13T15:11:52Z</time></trkpt>
<trkpt lat="46.23814389" lon="7.33745601"><ele>706.225586</ele><time>2009-03-13T15:11:53Z</time></trkpt>
<trkpt lat="46.23828856" lon="7.33743598"><ele>707.187012</ele><time>2009-03-13T15:11:58Z</time></trkpt>
<trkpt lat="46.23840951" lon="7.33756028"><ele>709.109619</ele><time>2009-03-13T15:12:04Z</time></trkpt>
<trkpt lat="46.23863339" lon="7.33779271"><ele>712.954834</ele><time>2009-03-13T15:12:15Z</time></trkpt>
<trkpt lat="46.23888670" lon="7.33786748"><ele>715.838867</ele><time>2009-03-13T15:12:25Z</time></trkpt>
<trkpt lat="46.23915634" lon="7.33770168"><ele>718.7229</ele><time>2009-03-13T15:12:35Z</time></trkpt>
<trkpt lat="46.23935340" lon="7.33757688"><ele>720.645508</ele><time>2009-03-13T15:12:43Z</time></trkpt>
<trkpt lat="46.23945633" lon="7.33752223"><ele>720.645508</ele><time>2009-03-13T15:12:49Z</time></trkpt>
<trkpt lat="46.23965230" lon="7.33728435"><ele>721.606689</ele><time>2009-03-13T15:12:57Z</time></trkpt>
<trkpt lat="46.23988825" lon="7.33703096"><ele>721.126221</ele><time>2009-03-13T15:13:05Z</time></trkpt>
<trkpt lat="46.24010802" lon="7.33655102"><ele>723.529541</ele><time>2009-03-13T15:13:15Z</time></trkpt>
<trkpt lat="46.24033123" lon="7.33636418"><ele>726.41333</ele><time>2009-03-13T15:13:22Z</time></trkpt>
<trkpt lat="46.24041011" lon="7.33634491"><ele>726.894043</ele><time>2009-03-13T15:13:24Z</time></trkpt>
<trkpt lat="46.24079433" lon="7.33641347"><ele>728.81665</ele><time>2009-03-13T15:13:33Z</time></trkpt>
<trkpt lat="46.24105182" lon="7.33647357"><ele>730.258545</ele><time>2009-03-13T15:13:39Z</time></trkpt>
<trkpt lat="46.24130328" lon="7.33635907"><ele>730.739258</ele><time>2009-03-13T15:13:45Z</time></trkpt>
<trkpt lat="46.24133949" lon="7.33631507"><ele>730.258545</ele><time>2009-03-13T15:13:46Z</time></trkpt>
<trkpt lat="46.24152850" lon="7.33599739"><ele>729.777832</ele><time>2009-03-13T15:13:52Z</time></trkpt>
<trkpt lat="46.24159212" lon="7.33560889"><ele>730.258545</ele><time>2009-03-13T15:13:58Z</time></trkpt>
<trkpt lat="46.24156237" lon="7.33521008"><ele>732.662109</ele><time>2009-03-13T15:14:06Z</time></trkpt>
<trkpt lat="46.24145650" lon="7.33466936"><ele>737.468506</ele><time>2009-03-13T15:14:17Z</time></trkpt>
<trkpt lat="46.24138283" lon="7.33436812"><ele>740.833008</ele><time>2009-03-13T15:14:25Z</time></trkpt>
<trkpt lat="46.24132072" lon="7.33391751"><ele>746.601074</ele><time>2009-03-13T15:14:36Z</time></trkpt>
<trkpt lat="46.24141200" lon="7.33346086"><ele>749.004395</ele><time>2009-03-13T15:14:46Z</time></trkpt>
<trkpt lat="46.24162632" lon="7.33290464"><ele>750.927002</ele><time>2009-03-13T15:14:59Z</time></trkpt>
<trkpt lat="46.24181760" lon="7.33255067"><ele>752.368896</ele><time>2009-03-13T15:15:08Z</time></trkpt>
<trkpt lat="46.24188792" lon="7.33241421"><ele>752.849609</ele><time>2009-03-13T15:15:11Z</time></trkpt>
<trkpt lat="46.24211851" lon="7.33202848"><ele>754.291748</ele><time>2009-03-13T15:15:20Z</time></trkpt>
<trkpt lat="46.24222068" lon="7.33188867"><ele>754.772217</ele><time>2009-03-13T15:15:24Z</time></trkpt>
<trkpt lat="46.24234725" lon="7.33197810"><ele>757.175537</ele><time>2009-03-13T15:15:29Z</time></trkpt>
<trkpt lat="46.24238371" lon="7.33208681"><ele>758.136963</ele><time>2009-03-13T15:15:32Z</time></trkpt>
<trkpt lat="46.24249754" lon="7.33245897"><ele>761.982178</ele><time>2009-03-13T15:15:43Z</time></trkpt>
<trkpt lat="46.24254188" lon="7.33259803"><ele>764.866211</ele><time>2009-03-13T15:15:49Z</time></trkpt>
<trkpt lat="46.24265713" lon="7.33277908"><ele>769.672852</ele><time>2009-03-13T15:16:02Z</time></trkpt>
<trkpt lat="46.24280465" lon="7.33300069"><ele>773.518066</ele><time>2009-03-13T15:16:14Z</time></trkpt>
<trkpt lat="46.24290263" lon="7.33324679"><ele>776.401855</ele><time>2009-03-13T15:16:25Z</time></trkpt>
<trkpt lat="46.24298603" lon="7.33360779"><ele>779.766357</ele><time>2009-03-13T15:16:36Z</time></trkpt>
<trkpt lat="46.24295519" lon="7.33388985"><ele>781.20874</ele><time>2009-03-13T15:16:44Z</time></trkpt>
<trkpt lat="46.24302157" lon="7.33408330"><ele>781.689209</ele><time>2009-03-13T15:16:50Z</time></trkpt>
<trkpt lat="46.24336037" lon="7.33446610"><ele>784.573242</ele><time>2009-03-13T15:17:07Z</time></trkpt>
<trkpt lat="46.24369992" lon="7.33476399"><ele>790.341064</ele><time>2009-03-13T15:17:23Z</time></trkpt>
<trkpt lat="46.24407593" lon="7.33491655"><ele>789.860352</ele><time>2009-03-13T15:17:39Z</time></trkpt>
<trkpt lat="46.24415464" lon="7.33459468"><ele>791.302246</ele><time>2009-03-13T15:17:46Z</time></trkpt>
<trkpt lat="46.24425614" lon="7.33421632"><ele>792.744385</ele><time>2009-03-13T15:17:54Z</time></trkpt>
<trkpt lat="46.24437542" lon="7.33372606"><ele>794.666748</ele><time>2009-03-13T15:18:04Z</time></trkpt>
<trkpt lat="46.24441154" lon="7.33307077"><ele>795.628174</ele><time>2009-03-13T15:18:16Z</time></trkpt>
<trkpt lat="46.24445404" lon="7.33245729"><ele>799.473633</ele><time>2009-03-13T15:18:28Z</time></trkpt>
<trkpt lat="46.24442847" lon="7.33198204"><ele>803.318848</ele><time>2009-03-13T15:18:38Z</time></trkpt>
<trkpt lat="46.24434759" lon="7.33142875"><ele>808.605957</ele><time>2009-03-13T15:18:50Z</time></trkpt>
<trkpt lat="46.24429772" lon="7.33104293"><ele>812.451416</ele><time>2009-03-13T15:19:00Z</time></trkpt>
<trkpt lat="46.24431012" lon="7.33072115"><ele>815.816162</ele><time>2009-03-13T15:19:10Z</time></trkpt>
<trkpt lat="46.24431557" lon="7.33060347"><ele>816.296631</ele><time>2009-03-13T15:19:16Z</time></trkpt>
<trkpt lat="46.24434130" lon="7.33034573"><ele>819.661377</ele><time>2009-03-13T15:19:27Z</time></trkpt>
<trkpt lat="46.24435773" lon="7.33005898"><ele>825.428955</ele><time>2009-03-13T15:19:39Z</time></trkpt>
<trkpt lat="46.24436712" lon="7.32984432"><ele>829.755127</ele><time>2009-03-13T15:19:48Z</time></trkpt>
<trkpt lat="46.24437902" lon="7.32965564"><ele>832.158447</ele><time>2009-03-13T15:19:56Z</time></trkpt>
<trkpt lat="46.24438405" lon="7.32937267"><ele>833.600342</ele><time>2009-03-13T15:20:08Z</time></trkpt>
<trkpt lat="46.24439612" lon="7.32904259"><ele>837.92627</ele><time>2009-03-13T15:20:21Z</time></trkpt>
<trkpt lat="46.24437232" lon="7.32871251"><ele>841.771484</ele><time>2009-03-13T15:20:33Z</time></trkpt>
<trkpt lat="46.24430551" lon="7.32841487"><ele>844.655518</ele><time>2009-03-13T15:20:44Z</time></trkpt>
<trkpt lat="46.24428875" lon="7.32827716"><ele>846.097656</ele><time>2009-03-13T15:20:49Z</time></trkpt>
<trkpt lat="46.24436419" lon="7.32829710"><ele>846.578369</ele><time>2009-03-13T15:20:54Z</time></trkpt>
<trkpt lat="46.24450207" lon="7.32853507"><ele>847.058838</ele><time>2009-03-13T15:21:02Z</time></trkpt>
<trkpt lat="46.24464657" lon="7.32891460"><ele>847.539551</ele><time>2009-03-13T15:21:09Z</time></trkpt>
<trkpt lat="46.24464029" lon="7.32932137"><ele>849.942871</ele><time>2009-03-13T15:21:15Z</time></trkpt>
<trkpt lat="46.24464615" lon="7.32974173"><ele>851.865479</ele><time>2009-03-13T15:21:21Z</time></trkpt>
<trkpt lat="46.24466334" lon="7.32981322"><ele>852.345947</ele><time>2009-03-13T15:21:22Z</time></trkpt>
<trkpt lat="46.24492133" lon="7.33047682"><ele>852.82666</ele><time>2009-03-13T15:21:32Z</time></trkpt>
<trkpt lat="46.24517363" lon="7.33083967"><ele>854.749268</ele><time>2009-03-13T15:21:39Z</time></trkpt>
<trkpt lat="46.24558023" lon="7.33128685"><ele>856.671875</ele><time>2009-03-13T15:21:49Z</time></trkpt>
<trkpt lat="46.24581434" lon="7.33170762"><ele>856.671875</ele><time>2009-03-13T15:21:56Z</time></trkpt>
<trkpt lat="46.24605917" lon="7.33205102"><ele>856.191162</ele><time>2009-03-13T15:22:02Z</time></trkpt>
<trkpt lat="46.24629102" lon="7.33251303"><ele>856.191162</ele><time>2009-03-13T15:22:09Z</time></trkpt>
<trkpt lat="46.24668430" lon="7.33317696"><ele>857.152588</ele><time>2009-03-13T15:22:20Z</time></trkpt>
<trkpt lat="46.24673685" lon="7.33329976"><ele>857.152588</ele><time>2009-03-13T15:22:22Z</time></trkpt>
<trkpt lat="46.24676459" lon="7.33352867"><ele>857.152588</ele><time>2009-03-13T15:22:25Z</time></trkpt>
<trkpt lat="46.24685512" lon="7.33389487"><ele>857.633301</ele><time>2009-03-13T15:22:30Z</time></trkpt>
<trkpt lat="46.24721454" lon="7.33462075"><ele>857.633301</ele><time>2009-03-13T15:22:41Z</time></trkpt>
<trkpt lat="46.24749491" lon="7.33514252"><ele>856.671875</ele><time>2009-03-13T15:22:50Z</time></trkpt>
<trkpt lat="46.24772457" lon="7.33553454"><ele>857.152588</ele><time>2009-03-13T15:22:57Z</time></trkpt>
<trkpt lat="46.24789146" lon="7.33555390"><ele>857.633301</ele><time>2009-03-13T15:23:01Z</time></trkpt>
<trkpt lat="46.24821902" lon="7.33526238"><ele>856.671875</ele><time>2009-03-13T15:23:07Z</time></trkpt>
<trkpt lat="46.24852287" lon="7.33520010"><ele>855.710693</ele><time>2009-03-13T15:23:11Z</time></trkpt>
<trkpt lat="46.24883694" lon="7.33532013"><ele>855.710693</ele><time>2009-03-13T15:23:17Z</time></trkpt>
<trkpt lat="46.24911396" lon="7.33531997"><ele>854.749268</ele><time>2009-03-13T15:23:24Z</time></trkpt>
<trkpt lat="46.24926567" lon="7.33529792"><ele>861.959473</ele><time>2009-03-13T15:24:33Z</time></trkpt>
<trkpt lat="46.24928319" lon="7.33526624"><ele>861.47876</ele><time>2009-03-13T15:24:36Z</time></trkpt>
<trkpt lat="46.24893727" lon="7.33380083"><ele>859.555908</ele><time>2009-03-13T15:24:54Z</time></trkpt>
<trkpt lat="46.24859805" lon="7.33303481"><ele>854.268799</ele><time>2009-03-13T15:25:01Z</time></trkpt>
<trkpt lat="46.24844332" lon="7.33267506"><ele>852.82666</ele><time>2009-03-13T15:25:04Z</time></trkpt>
<trkpt lat="46.24835397" lon="7.33202646"><ele>850.904053</ele><time>2009-03-13T15:25:09Z</time></trkpt>
<trkpt lat="46.24819865" lon="7.33067597"><ele>847.058838</ele><time>2009-03-13T15:25:20Z</time></trkpt>
<trkpt lat="46.24813520" lon="7.33033014"><ele>846.097656</ele><time>2009-03-13T15:25:23Z</time></trkpt>
<trkpt lat="46.24779448" lon="7.32948977"><ele>844.655518</ele><time>2009-03-13T15:25:31Z</time></trkpt>
<trkpt lat="46.24741905" lon="7.32849165"><ele>842.252197</ele><time>2009-03-13T15:25:40Z</time></trkpt>
<trkpt lat="46.24711253" lon="7.32730418"><ele>836.484375</ele><time>2009-03-13T15:25:49Z</time></trkpt>
<trkpt lat="46.24694875" lon="7.32622116"><ele>831.677734</ele><time>2009-03-13T15:25:56Z</time></trkpt>
<trkpt lat="46.24691555" lon="7.32497569"><ele>827.832275</ele><time>2009-03-13T15:26:04Z</time></trkpt>
<trkpt lat="46.24693793" lon="7.32421327"><ele>824.948486</ele><time>2009-03-13T15:26:09Z</time></trkpt>
<trkpt lat="46.24711739" lon="7.32365873"><ele>823.025879</ele><time>2009-03-13T15:26:13Z</time></trkpt>
<trkpt lat="46.24735971" lon="7.32314005"><ele>821.58374</ele><time>2009-03-13T15:26:17Z</time></trkpt>
<trkpt lat="46.24754478" lon="7.32231628"><ele>820.622559</ele><time>2009-03-13T15:26:23Z</time></trkpt>
<trkpt lat="46.24783664" lon="7.32152537"><ele>819.661377</ele><time>2009-03-13T15:26:30Z</time></trkpt>
<trkpt lat="46.24797117" lon="7.32124968"><ele>819.180664</ele><time>2009-03-13T15:26:33Z</time></trkpt>
<trkpt lat="46.24798995" lon="7.32096177"><ele>818.699951</ele><time>2009-03-13T15:26:36Z</time></trkpt>
<trkpt lat="46.24775190" lon="7.32033572"><ele>815.816162</ele><time>2009-03-13T15:26:42Z</time></trkpt>
<trkpt lat="46.24749566" lon="7.31963139"><ele>810.047852</ele><time>2009-03-13T15:26:48Z</time></trkpt>
<trkpt lat="46.24682369" lon="7.31535402"><ele>779.285645</ele><time>2009-03-13T15:27:19Z</time></trkpt>
<trkpt lat="46.24695654" lon="7.31440485"><ele>773.037354</ele><time>2009-03-13T15:27:26Z</time></trkpt>
<trkpt lat="46.24718310" lon="7.31414166"><ele>769.672852</ele><time>2009-03-13T15:27:30Z</time></trkpt>
<trkpt lat="46.24738997" lon="7.31393212"><ele>767.269531</ele><time>2009-03-13T15:27:34Z</time></trkpt>
<trkpt lat="46.24727874" lon="7.31376347"><ele>765.827637</ele><time>2009-03-13T15:27:36Z</time></trkpt>
<trkpt lat="46.24720003" lon="7.31369566"><ele>764.866211</ele><time>2009-03-13T15:27:37Z</time></trkpt>
<trkpt lat="46.24693726" lon="7.31349835"><ele>761.982178</ele><time>2009-03-13T15:27:40Z</time></trkpt>
<trkpt lat="46.24659008" lon="7.31363598"><ele>758.617432</ele><time>2009-03-13T15:27:44Z</time></trkpt>
<trkpt lat="46.24652378" lon="7.31373774"><ele>757.65625</ele><time>2009-03-13T15:27:45Z</time></trkpt>
<trkpt lat="46.24625145" lon="7.31416136"><ele>753.811035</ele><time>2009-03-13T15:27:49Z</time></trkpt>
<trkpt lat="46.24606781" lon="7.31472421"><ele>749.96582</ele><time>2009-03-13T15:27:53Z</time></trkpt>
<trkpt lat="46.24588961" lon="7.31591142"><ele>742.275146</ele><time>2009-03-13T15:28:00Z</time></trkpt>
<trkpt lat="46.24567721" lon="7.31677467"><ele>736.507324</ele><time>2009-03-13T15:28:05Z</time></trkpt>
<trkpt lat="46.24562189" lon="7.31713811"><ele>733.623291</ele><time>2009-03-13T15:28:07Z</time></trkpt>
<trkpt lat="46.24562608" lon="7.31749526"><ele>729.777832</ele><time>2009-03-13T15:28:10Z</time></trkpt>
<trkpt lat="46.24550069" lon="7.31748411"><ele>727.855225</ele><time>2009-03-13T15:28:13Z</time></trkpt>
<trkpt lat="46.24516197" lon="7.31536827"><ele>714.396729</ele><time>2009-03-13T15:28:27Z</time></trkpt>
<trkpt lat="46.24475244" lon="7.31379021"><ele>701.419189</ele><time>2009-03-13T15:28:36Z</time></trkpt>
<trkpt lat="46.24460139" lon="7.31321622"><ele>696.612549</ele><time>2009-03-13T15:28:40Z</time></trkpt>
<trkpt lat="46.24466292" lon="7.31286409"><ele>692.767334</ele><time>2009-03-13T15:28:44Z</time></trkpt>
<trkpt lat="46.24472293" lon="7.31280492"><ele>691.805908</ele><time>2009-03-13T15:28:45Z</time></trkpt>
<trkpt lat="46.24430719" lon="7.31261138"><ele>686.038086</ele><time>2009-03-13T15:28:55Z</time></trkpt>
<trkpt lat="46.24410409" lon="7.31293593"><ele>683.153809</ele><time>2009-03-13T15:28:59Z</time></trkpt>
<trkpt lat="46.24408825" lon="7.31306484"><ele>682.192627</ele><time>2009-03-13T15:29:00Z</time></trkpt>
<trkpt lat="46.24400879" lon="7.31364143"><ele>678.347412</ele><time>2009-03-13T15:29:04Z</time></trkpt>
<trkpt lat="46.24405380" lon="7.31428935"><ele>673.541016</ele><time>2009-03-13T15:29:08Z</time></trkpt>
<trkpt lat="46.24392313" lon="7.31488891"><ele>669.215088</ele><time>2009-03-13T15:29:12Z</time></trkpt>
<trkpt lat="46.24386949" lon="7.31527649"><ele>666.330811</ele><time>2009-03-13T15:29:15Z</time></trkpt>
<trkpt lat="46.24389463" lon="7.31541311"><ele>665.369629</ele><time>2009-03-13T15:29:16Z</time></trkpt>
<trkpt lat="46.24406990" lon="7.31650368"><ele>657.679199</ele><time>2009-03-13T15:29:23Z</time></trkpt>
<trkpt lat="46.24423997" lon="7.31745897"><ele>650.469238</ele><time>2009-03-13T15:29:29Z</time></trkpt>
<trkpt lat="46.24405825" lon="7.31795358"><ele>646.624023</ele><time>2009-03-13T15:29:33Z</time></trkpt>
<trkpt lat="46.24396294" lon="7.31804704"><ele>645.662598</ele><time>2009-03-13T15:29:34Z</time></trkpt>
<trkpt lat="46.24355860" lon="7.31842280"><ele>641.817383</ele><time>2009-03-13T15:29:38Z</time></trkpt>
<trkpt lat="46.24311880" lon="7.31836514"><ele>637.491455</ele><time>2009-03-13T15:29:42Z</time></trkpt>
<trkpt lat="46.24268009" lon="7.31807110"><ele>632.684814</ele><time>2009-03-13T15:29:46Z</time></trkpt>
<trkpt lat="46.24208917" lon="7.31783842"><ele>627.878174</ele><time>2009-03-13T15:29:51Z</time></trkpt>
<trkpt lat="46.24172489" lon="7.31781361"><ele>624.513672</ele><time>2009-03-13T15:29:54Z</time></trkpt>
<trkpt lat="46.24146304" lon="7.31756366"><ele>621.14917</ele><time>2009-03-13T15:29:57Z</time></trkpt>
<trkpt lat="46.24142247" lon="7.31716560"><ele>618.745605</ele><time>2009-03-13T15:30:00Z</time></trkpt>
<trkpt lat="46.24155826" lon="7.31698883"><ele>618.745605</ele><time>2009-03-13T15:30:02Z</time></trkpt>
<trkpt lat="46.24162976" lon="7.31670015"><ele>617.303711</ele><time>2009-03-13T15:30:05Z</time></trkpt>
<trkpt lat="46.24150059" lon="7.31656487"><ele>615.381104</ele><time>2009-03-13T15:30:07Z</time></trkpt>
<trkpt lat="46.24141376" lon="7.31651559"><ele>614.419678</ele><time>2009-03-13T15:30:08Z</time></trkpt>
<trkpt lat="46.24114805" lon="7.31636161"><ele>612.016602</ele><time>2009-03-13T15:30:11Z</time></trkpt>
<trkpt lat="46.24090875" lon="7.31646831"><ele>609.132568</ele><time>2009-03-13T15:30:14Z</time></trkpt>
<trkpt lat="46.24064539" lon="7.31658214"><ele>606.248535</ele><time>2009-03-13T15:30:17Z</time></trkpt>
<trkpt lat="46.24032696" lon="7.31644484"><ele>602.883789</ele><time>2009-03-13T15:30:20Z</time></trkpt>
<trkpt lat="46.23990661" lon="7.31624912"><ele>598.077393</ele><time>2009-03-13T15:30:24Z</time></trkpt>
<trkpt lat="46.23964509" lon="7.31619607"><ele>595.193359</ele><time>2009-03-13T15:30:27Z</time></trkpt>
<trkpt lat="46.23956186" lon="7.31608484"><ele>593.751465</ele><time>2009-03-13T15:30:29Z</time></trkpt>
<trkpt lat="46.23961911" lon="7.31588971"><ele>593.751465</ele><time>2009-03-13T15:30:31Z</time></trkpt>
<trkpt lat="46.23967510" lon="7.31579072"><ele>593.270752</ele><time>2009-03-13T15:30:32Z</time></trkpt>
<trkpt lat="46.23979529" lon="7.31557924"><ele>591.348145</ele><time>2009-03-13T15:30:34Z</time></trkpt>
<trkpt lat="46.24030030" lon="7.31505856"><ele>586.060791</ele><time>2009-03-13T15:30:40Z</time></trkpt>
<trkpt lat="46.23945482" lon="7.31427980"><ele>573.563965</ele><time>2009-03-13T15:30:53Z</time></trkpt>
<trkpt lat="46.23917118" lon="7.31408659"><ele>571.1604</ele><time>2009-03-13T15:30:56Z</time></trkpt>
<trkpt lat="46.23874873" lon="7.31404745"><ele>569.237793</ele><time>2009-03-13T15:31:00Z</time></trkpt>
<trkpt lat="46.23853533" lon="7.31409732"><ele>567.315186</ele><time>2009-03-13T15:31:02Z</time></trkpt>
<trkpt lat="46.23786796" lon="7.31401107"><ele>562.028076</ele><time>2009-03-13T15:31:08Z</time></trkpt>
<trkpt lat="46.23719783" lon="7.31397830"><ele>556.26001</ele><time>2009-03-13T15:31:14Z</time></trkpt>
<trkpt lat="46.23675861" lon="7.31375492"><ele>550.972656</ele><time>2009-03-13T15:31:18Z</time></trkpt>
<trkpt lat="46.23575144" lon="7.31285580"><ele>539.917603</ele><time>2009-03-13T15:31:28Z</time></trkpt>
<trkpt lat="46.23497997" lon="7.31218415"><ele>531.265747</ele><time>2009-03-13T15:31:36Z</time></trkpt>
<trkpt lat="46.23471837" lon="7.31184762"><ele>526.939819</ele><time>2009-03-13T15:31:39Z</time></trkpt>
<trkpt lat="46.23426525" lon="7.31170588"><ele>522.613892</ele><time>2009-03-13T15:31:43Z</time></trkpt>
<trkpt lat="46.23414874" lon="7.31175383"><ele>522.133179</ele><time>2009-03-13T15:31:44Z</time></trkpt>
<trkpt lat="46.23330837" lon="7.31212866"><ele>520.691284</ele><time>2009-03-13T15:31:52Z</time></trkpt>
<trkpt lat="46.23277654" lon="7.31235607"><ele>519.729858</ele><time>2009-03-13T15:31:58Z</time></trkpt>
<trkpt lat="46.23247605" lon="7.31224719"><ele>519.249268</ele><time>2009-03-13T15:32:02Z</time></trkpt>
<trkpt lat="46.23241050" lon="7.31202230"><ele>520.210571</ele><time>2009-03-13T15:32:04Z</time></trkpt>
<trkpt lat="46.23222250" lon="7.31131847"><ele>519.729858</ele><time>2009-03-13T15:32:11Z</time></trkpt>
<trkpt lat="46.23219400" lon="7.31121018"><ele>518.768555</ele><time>2009-03-13T15:32:14Z</time></trkpt>
<trkpt lat="46.23198395" lon="7.31086635"><ele>518.287842</ele><time>2009-03-13T15:32:20Z</time></trkpt>
<trkpt lat="46.23154926" lon="7.30988768"><ele>517.32666</ele><time>2009-03-13T15:32:31Z</time></trkpt>
<trkpt lat="46.23153040" lon="7.30915334"><ele>515.884644</ele><time>2009-03-13T15:32:38Z</time></trkpt>
<trkpt lat="46.23152462" lon="7.30904002"><ele>513.962036</ele><time>2009-03-13T15:32:41Z</time></trkpt>
<trkpt lat="46.23096311" lon="7.30760931"><ele>514.92334</ele><time>2009-03-13T15:32:58Z</time></trkpt>
<trkpt lat="46.23076916" lon="7.30669526"><ele>512.039429</ele><time>2009-03-13T15:33:06Z</time></trkpt>
<trkpt lat="46.23063111" lon="7.30598892"><ele>511.078003</ele><time>2009-03-13T15:33:13Z</time></trkpt>
<trkpt lat="46.23044947" lon="7.30544653"><ele>510.59729</ele><time>2009-03-13T15:33:19Z</time></trkpt>
<trkpt lat="46.23029759" lon="7.30478536"><ele>510.116699</ele><time>2009-03-13T15:33:25Z</time></trkpt>
<trkpt lat="46.23010917" lon="7.30380988"><ele>508.194092</ele><time>2009-03-13T15:33:34Z</time></trkpt>
<trkpt lat="46.22996500" lon="7.30330026"><ele>508.674683</ele><time>2009-03-13T15:33:39Z</time></trkpt>
<trkpt lat="46.22991915" lon="7.30267899"><ele>509.636108</ele><time>2009-03-13T15:33:45Z</time></trkpt>
<trkpt lat="46.22991370" lon="7.30176754"><ele>509.155396</ele><time>2009-03-13T15:33:54Z</time></trkpt>
<trkpt lat="46.22992812" lon="7.30143746"><ele>509.636108</ele><time>2009-03-13T15:33:57Z</time></trkpt>
<trkpt lat="46.22991915" lon="7.30121467"><ele>509.636108</ele><time>2009-03-13T15:33:59Z</time></trkpt>
<trkpt lat="46.22973919" lon="7.30048763"><ele>508.194092</ele><time>2009-03-13T15:34:06Z</time></trkpt>
<trkpt lat="46.22947994" lon="7.29957920"><ele>506.271484</ele><time>2009-03-13T15:34:15Z</time></trkpt>
<trkpt lat="46.22930735" lon="7.29911534"><ele>504.829468</ele><time>2009-03-13T15:34:20Z</time></trkpt>
<trkpt lat="46.22927223" lon="7.29870270"><ele>504.348877</ele><time>2009-03-13T15:34:24Z</time></trkpt>
<trkpt lat="46.22922286" lon="7.29806945"><ele>505.310181</ele><time>2009-03-13T15:34:30Z</time></trkpt>
<trkpt lat="46.22891106" lon="7.29698894"><ele>505.310181</ele><time>2009-03-13T15:34:41Z</time></trkpt>
<trkpt lat="46.22883218" lon="7.29656775"><ele>503.868164</ele><time>2009-03-13T15:34:45Z</time></trkpt>
<trkpt lat="46.22874342" lon="7.29571405"><ele>502.426147</ele><time>2009-03-13T15:34:53Z</time></trkpt>
<trkpt lat="46.22858148" lon="7.29537140"><ele>501.945557</ele><time>2009-03-13T15:34:57Z</time></trkpt>
<trkpt lat="46.22843580" lon="7.29515028"><ele>501.464844</ele><time>2009-03-13T15:35:00Z</time></trkpt>
<trkpt lat="46.22814554" lon="7.29491911"><ele>500.984131</ele><time>2009-03-13T15:35:05Z</time></trkpt>
<trkpt lat="46.22800204" lon="7.29488399"><ele>500.50354</ele><time>2009-03-13T15:35:07Z</time></trkpt>
<trkpt lat="46.22741782" lon="7.29464795"><ele>500.022949</ele><time>2009-03-13T15:35:15Z</time></trkpt>
<trkpt lat="46.22717567" lon="7.29437261"><ele>499.542236</ele><time>2009-03-13T15:35:19Z</time></trkpt>
<trkpt lat="46.22690393" lon="7.29418611"><ele>499.061523</ele><time>2009-03-13T15:35:23Z</time></trkpt>
<trkpt lat="46.22614838" lon="7.29398134"><ele>497.619629</ele><time>2009-03-13T15:35:33Z</time></trkpt>
<trkpt lat="46.22553240" lon="7.29390331"><ele>496.177734</ele><time>2009-03-13T15:35:42Z</time></trkpt>
<trkpt lat="46.22540809" lon="7.29385687"><ele>496.177734</ele><time>2009-03-13T15:35:44Z</time></trkpt>
<trkpt lat="46.22514959" lon="7.29398235"><ele>495.216187</ele><time>2009-03-13T15:35:48Z</time></trkpt>
<trkpt lat="46.22450142" lon="7.29454033"><ele>493.774292</ele><time>2009-03-13T15:35:58Z</time></trkpt>
<trkpt lat="46.22436538" lon="7.29466354"><ele>493.293579</ele><time>2009-03-13T15:36:01Z</time></trkpt>
<trkpt lat="46.22447368" lon="7.29268089"><ele>492.332397</ele><time>2009-03-13T15:36:21Z</time></trkpt>
<trkpt lat="46.22463620" lon="7.29125890"><ele>489.448364</ele><time>2009-03-13T15:36:34Z</time></trkpt>
<trkpt lat="46.22474584" lon="7.29026330"><ele>490.40979</ele><time>2009-03-13T15:36:43Z</time></trkpt>
<trkpt lat="46.22484818" lon="7.28939694"><ele>488.967773</ele><time>2009-03-13T15:36:51Z</time></trkpt>
<trkpt lat="46.22489654" lon="7.28844141"><ele>488.967773</ele><time>2009-03-13T15:37:00Z</time></trkpt>
<trkpt lat="46.22486629" lon="7.28713484"><ele>489.448364</ele><time>2009-03-13T15:37:12Z</time></trkpt>
<trkpt lat="46.22485128" lon="7.28626437"><ele>489.448364</ele><time>2009-03-13T15:37:20Z</time></trkpt>
<trkpt lat="46.22482396" lon="7.28520080"><ele>489.448364</ele><time>2009-03-13T15:37:30Z</time></trkpt>
<trkpt lat="46.22475020" lon="7.28433000"><ele>489.929077</ele><time>2009-03-13T15:37:39Z</time></trkpt>
<trkpt lat="46.22463947" lon="7.28393898"><ele>489.448364</ele><time>2009-03-13T15:37:44Z</time></trkpt>
<trkpt lat="46.22462447" lon="7.28376338"><ele>489.929077</ele><time>2009-03-13T15:37:49Z</time></trkpt>
<trkpt lat="46.22431048" lon="7.28274414"><ele>486.564453</ele><time>2009-03-13T15:38:04Z</time></trkpt>
<trkpt lat="46.22407830" lon="7.28218809"><ele>484.641846</ele><time>2009-03-13T15:38:11Z</time></trkpt>
<trkpt lat="46.22377169" lon="7.28150966"><ele>483.68042</ele><time>2009-03-13T15:38:20Z</time></trkpt>
<trkpt lat="46.22365259" lon="7.28124470"><ele>482.238525</ele><time>2009-03-13T15:38:25Z</time></trkpt>
<trkpt lat="46.22354019" lon="7.28103918"><ele>482.238525</ele><time>2009-03-13T15:38:30Z</time></trkpt>
</trkseg></trk></gpx>